Time;durP1;ratioP1;P1;durP2;ratioP2;P2;SDS_P1;SDS_P2;PMS_P1;PMS_P2;Temp;Humidity;BMP_temperature;BMP_pressure;BME280_temperature;BME280_humidity;BME280_pressure;Samples;Min_cycle;Max_cycle;Signal;HPM_P1;HPM_P2
2021/10/26 00:01:39;;;;;;;6.32;2.42;;;;;;;15.43;63.13;100581.34;5000792;28;20034;-86
2021/10/26 00:04:07;;;;;;;3.63;1.38;;;;;;;15.50;62.88;100588.75;5001533;28;20019;-86
2021/10/26 00:06:33;;;;;;;8.75;3.30;;;;;;;15.34;62.76;100587.41;5003007;28;20083;-86
2021/10/26 00:08:58;;;;;;;6.30;1.52;;;;;;;15.49;62.52;100582.63;5004212;28;20428;-86
2021/10/26 00:11:24;;;;;;;10.40;1.90;;;;;;;15.51;63.65;100595.75;5002391;28;20061;-85
2021/10/26 00:13:49;;;;;;;10.13;2.20;;;;;;;15.59;63.06;100595.91;5002551;28;20030;-86
2021/10/26 00:16:15;;;;;;;9.50;1.83;;;;;;;15.53;63.33;100585.88;5000340;28;20503;-86
2021/10/26 00:18:40;;;;;;;11.18;1.77;;;;;;;15.58;63.71;100591.59;5002420;28;20037;-86
2021/10/26 00:21:06;;;;;;;8.15;1.77;;;;;;;15.69;63.60;100585.38;4983541;28;20120;-86
2021/10/26 00:23:31;;;;;;;7.70;1.48;;;;;;;15.73;63.30;100592.94;5012487;28;20026;-86
2021/10/26 00:25:56;;;;;;;7.63;1.83;;;;;;;15.69;63.57;100590.69;5002250;28;20061;-86
2021/10/26 00:28:23;;;;;;;5.75;1.42;;;;;;;15.70;63.39;100590.53;4999780;28;20056;-86
2021/10/26 00:30:48;;;;;;;5.95;1.48;;;;;;;15.64;63.34;100597.22;4984706;28;20073;-86
2021/10/26 00:33:14;;;;;;;6.55;1.33;;;;;;;15.67;63.08;100614.63;5001797;28;20030;-85
2021/10/26 00:35:39;;;;;;;4.93;1.38;;;;;;;15.56;63.25;100604.97;5002131;28;20492;-85
2021/10/26 00:38:04;;;;;;;5.60;1.58;;;;;;;15.62;63.40;100619.47;5001935;28;20185;-86
2021/10/26 00:40:30;;;;;;;4.90;1.48;;;;;;;15.68;63.04;100621.59;5002873;28;20030;-86
2021/10/26 00:42:56;;;;;;;5.88;1.20;;;;;;;15.45;63.07;100605.88;5003926;28;20026;-86
2021/10/26 00:45:22;;;;;;;7.32;1.60;;;;;;;15.53;63.41;100612.34;5006319;28;20033;-86
2021/10/26 00:47:47;;;;;;;4.20;1.65;;;;;;;15.50;63.13;100607.28;5003794;28;20042;-86
2021/10/26 00:50:13;;;;;;;9.13;1.27;;;;;;;15.53;62.93;100604.38;5004272;28;20041;-86
2021/10/26 00:52:41;;;;;;;4.03;1.20;;;;;;;15.44;62.98;100620.09;5004141;28;20036;-86
2021/10/26 00:55:07;;;;;;;6.60;1.95;;;;;;;15.34;63.10;100611.22;5003395;28;20022;-86
2021/10/26 00:57:33;;;;;;;4.32;1.27;;;;;;;15.31;62.97;100613.31;5002582;28;20026;-85
2021/10/26 00:59:58;;;;;;;4.43;0.93;;;;;;;15.27;63.27;100616.22;4984331;28;20566;-86
2021/10/26 01:02:24;;;;;;;7.50;1.45;;;;;;;15.31;62.69;100608.88;5003486;28;20052;-86
2021/10/26 01:04:49;;;;;;;7.55;1.38;;;;;;;15.28;62.34;100614.41;5001414;28;20095;-85
2021/10/26 01:07:15;;;;;;;5.20;1.20;;;;;;;15.22;63.14;100621.03;4998355;28;20400;-86
2021/10/26 01:09:41;;;;;;;5.10;2.13;;;;;;;15.20;63.03;100614.22;5002286;28;20057;-86
2021/10/26 01:12:07;;;;;;;6.65;1.33;;;;;;;15.20;63.26;100617.69;4984301;28;20036;-86
2021/10/26 01:14:32;;;;;;;3.38;1.20;;;;;;;15.22;62.93;100625.50;5003407;28;20029;-86
2021/10/26 01:17:07;;;;;;;5.47;1.50;;;;;;;15.21;63.36;100629.13;5001586;28;20026;-86
2021/10/26 01:19:50;;;;;;;3.80;1.23;;;;;;;15.18;63.21;100611.69;5002125;28;20030;-86
2021/10/26 01:22:19;;;;;;;4.57;1.05;;;;;;;15.16;63.52;100607.50;5001575;28;20034;-86
2021/10/26 01:24:44;;;;;;;3.25;1.15;;;;;;;14.93;63.72;100612.91;5002568;28;20026;-85
2021/10/26 01:27:10;;;;;;;5.75;1.33;;;;;;;15.02;63.86;100613.94;5006815;28;20022;-85
2021/10/26 01:29:36;;;;;;;8.10;1.40;;;;;;;15.09;63.26;100612.47;5009711;28;20404;-85
2021/10/26 01:32:07;;;;;;;4.07;1.10;;;;;;;15.07;63.46;100612.59;5005500;28;20030;-85
2021/10/26 01:34:32;;;;;;;6.30;1.33;;;;;;;14.93;63.30;100615.56;5006275;28;20042;-85
2021/10/26 01:37:06;;;;;;;3.03;1.15;;;;;;;15.04;63.40;100607.56;5006327;28;20558;-85
2021/10/26 01:39:33;;;;;;;3.53;1.30;;;;;;;14.87;63.59;100614.25;5004689;28;20031;-85
2021/10/26 01:42:00;;;;;;;5.85;1.45;;;;;;;14.90;63.58;100621.09;5002588;28;20030;-85
2021/10/26 01:44:26;;;;;;;3.88;1.60;;;;;;;14.96;63.52;100620.59;5007376;28;20022;-85
2021/10/26 01:46:52;;;;;;;4.85;1.40;;;;;;;14.99;63.72;100620.34;5005732;28;20145;-85
2021/10/26 01:49:19;;;;;;;3.10;1.27;;;;;;;15.03;63.50;100621.75;5003150;28;20136;-85
2021/10/26 01:51:45;;;;;;;7.40;1.73;;;;;;;14.66;64.79;100623.97;5003959;28;20021;-85
2021/10/26 01:54:10;;;;;;;4.55;1.52;;;;;;;14.83;64.63;100630.47;5003392;28;21113;-85
2021/10/26 01:56:36;;;;;;;4.40;1.25;;;;;;;14.76;65.04;100629.34;4981688;28;20030;-85
2021/10/26 01:59:02;;;;;;;9.43;1.45;;;;;;;14.86;64.61;100619.66;5005938;28;20030;-86
2021/10/26 02:01:28;;;;;;;7.07;1.35;;;;;;;15.04;64.11;100623.44;5002988;28;20160;-85
2021/10/26 02:03:53;;;;;;;2.70;0.95;;;;;;;14.94;63.94;100624.31;5003199;28;20030;-85
2021/10/26 02:06:18;;;;;;;4.25;1.15;;;;;;;14.99;63.45;100614.22;5004910;28;20030;-85
2021/10/26 02:08:44;;;;;;;3.58;1.10;;;;;;;14.98;63.48;100621.28;5002948;28;20147;-85
2021/10/26 02:11:09;;;;;;;6.15;1.13;;;;;;;14.94;63.83;100619.88;5007662;28;20408;-85
2021/10/26 02:13:36;;;;;;;3.70;1.02;;;;;;;14.96;64.06;100617.09;5003007;28;20029;-85
2021/10/26 02:16:02;;;;;;;6.10;1.20;;;;;;;14.99;64.11;100616.88;5006649;28;20129;-85
2021/10/26 02:18:28;;;;;;;4.28;1.10;;;;;;;14.99;63.79;100614.22;5004933;28;20037;-85
2021/10/26 02:20:54;;;;;;;5.30;1.38;;;;;;;14.91;64.14;100612.22;5003970;28;20026;-85
2021/10/26 02:23:20;;;;;;;4.03;1.50;;;;;;;14.95;64.08;100610.13;5002171;28;20443;-85
2021/10/26 02:25:45;;;;;;;7.50;1.67;;;;;;;15.07;63.66;100602.03;5004524;28;20067;-86
2021/10/26 02:28:10;;;;;;;6.15;1.27;;;;;;;15.02;64.09;100595.44;5005029;28;20962;-85
2021/10/26 02:30:36;;;;;;;6.13;1.05;;;;;;;15.04;63.95;100591.69;5002204;28;20475;-86
2021/10/26 02:33:02;;;;;;;7.32;1.23;;;;;;;14.80;64.04;100593.75;4985323;28;20464;-85
2021/10/26 02:35:27;;;;;;;5.03;1.10;;;;;;;14.86;64.07;100587.94;4985368;28;20492;-86
2021/10/26 02:37:53;;;;;;;4.50;1.13;;;;;;;14.93;64.35;100590.91;5006543;28;20125;-86
2021/10/26 02:40:18;;;;;;;4.13;1.10;;;;;;;14.83;64.35;100604.06;5002608;28;20022;-86
2021/10/26 02:42:43;;;;;;;3.13;1.08;;;;;;;14.81;64.34;100605.97;5005314;28;20022;-86
2021/10/26 02:45:09;;;;;;;4.10;1.00;;;;;;;14.85;64.47;100607.44;5004490;28;20073;-85
2021/10/26 02:47:34;;;;;;;2.38;0.93;;;;;;;14.64;64.72;100610.03;5003710;28;20113;-85
2021/10/26 02:50:00;;;;;;;2.90;1.27;;;;;;;14.62;64.81;100607.50;5005295;28;20034;-86
2021/10/26 02:52:26;;;;;;;2.47;0.95;;;;;;;14.61;64.94;100604.97;5003750;28;20038;-85
2021/10/26 02:54:51;;;;;;;9.45;1.50;;;;;;;14.63;64.97;100608.34;5003449;28;20164;-86
2021/10/26 02:57:16;;;;;;;5.10;1.20;;;;;;;14.60;64.96;100612.09;5002324;28;20034;-85
2021/10/26 02:59:42;;;;;;;5.07;1.50;;;;;;;14.63;64.85;100609.19;5001916;28;20113;-85
2021/10/26 03:02:07;;;;;;;3.38;0.95;;;;;;;14.59;65.20;100614.84;5004034;28;20060;-86
2021/10/26 03:04:32;;;;;;;4.85;1.67;;;;;;;14.66;65.22;100610.75;5004280;28;20034;-85
2021/10/26 03:06:58;;;;;;;8.70;1.50;;;;;;;14.78;65.45;100606.25;5002874;28;20161;-86
2021/10/26 03:09:24;;;;;;;3.95;1.67;;;;;;;14.90;64.93;100607.88;5002970;28;20033;-86
2021/10/26 03:11:50;;;;;;;4.63;1.38;;;;;;;15.09;64.60;100599.25;5004791;28;20048;-86
2021/10/26 03:14:15;;;;;;;5.22;1.50;;;;;;;15.06;65.19;100591.56;5000413;28;20034;-86
2021/10/26 03:16:40;;;;;;;2.70;0.95;;;;;;;15.13;65.01;100603.31;5002059;28;20426;-86
2021/10/26 03:19:06;;;;;;;6.40;1.60;;;;;;;15.30;65.05;100620.41;5002871;28;20036;-86
2021/10/26 03:21:36;;;;;;;4.68;1.30;;;;;;;15.24;64.63;100615.63;5003279;28;20050;-86
2021/10/26 03:24:02;;;;;;;4.53;1.25;;;;;;;15.23;64.83;100616.63;5002828;28;20037;-86
2021/10/26 03:26:28;;;;;;;5.13;1.42;;;;;;;15.23;64.83;100613.97;5000964;28;20034;-86
2021/10/26 03:28:54;;;;;;;6.53;1.50;;;;;;;15.27;64.72;100612.75;5002891;28;20385;-86
2021/10/26 03:31:20;;;;;;;9.02;1.40;;;;;;;15.19;65.21;100609.91;5001697;28;20032;-86
2021/10/26 03:33:45;;;;;;;7.28;1.30;;;;;;;15.26;65.12;100611.03;5003303;28;20033;-86
2021/10/26 03:36:11;;;;;;;12.73;1.60;;;;;;;15.35;64.57;100607.63;5000287;28;20479;-85
2021/10/26 03:38:37;;;;;;;7.00;1.40;;;;;;;15.35;65.02;100612.91;5000376;28;20606;-86
2021/10/26 03:41:02;;;;;;;5.63;1.50;;;;;;;15.38;64.90;100614.47;5003497;28;20030;-86
2021/10/26 03:43:28;;;;;;;4.47;1.15;;;;;;;15.42;64.76;100613.22;5002857;28;20036;-86
2021/10/26 03:45:53;;;;;;;4.82;1.10;;;;;;;15.38;64.69;100601.22;5005463;28;20099;-86
2021/10/26 03:48:20;;;;;;;3.70;1.38;;;;;;;15.49;64.53;100611.75;5002085;28;20030;-86
2021/10/26 03:50:46;;;;;;;6.65;1.73;;;;;;;15.51;64.68;100619.56;5009666;28;20026;-86
2021/10/26 03:53:11;;;;;;;3.30;1.20;;;;;;;15.45;64.70;100621.75;5012362;28;20026;-86
2021/10/26 03:55:37;;;;;;;9.85;1.77;;;;;;;15.41;64.77;100620.34;5006200;28;20551;-86
2021/10/26 03:58:08;;;;;;;3.72;1.48;;;;;;;15.46;65.03;100625.22;4982125;28;20452;-86
2021/10/26 04:00:35;;;;;;;6.70;1.83;;;;;;;15.43;64.94;100628.16;4999790;28;20503;-86
2021/10/26 04:03:00;;;;;;;4.57;1.63;;;;;;;15.41;65.27;100622.97;4999088;28;20482;-86
2021/10/26 04:05:39;;;;;;;5.80;1.75;;;;;;;15.40;65.41;100617.81;5002395;28;20045;-86
2021/10/26 04:08:19;;;;;;;5.47;1.67;;;;;;;15.47;64.84;100614.53;5003475;28;20160;-86
2021/10/26 04:11:04;;;;;;;7.68;1.48;;;;;;;15.53;65.08;100617.63;4999671;28;20034;-86
2021/10/26 04:13:29;;;;;;;6.10;1.60;;;;;;;15.57;64.86;100621.69;5000519;28;20615;-86
2021/10/26 04:15:55;;;;;;;4.40;1.10;;;;;;;15.61;65.00;100620.44;5004500;28;20225;-86
2021/10/26 04:18:22;;;;;;;5.55;1.48;;;;;;;15.59;64.86;100622.38;5002939;28;20034;-86
2021/10/26 04:20:48;;;;;;;6.63;1.20;;;;;;;15.63;64.88;100618.50;5000695;28;20036;-86
2021/10/26 04:23:13;;;;;;;4.78;1.40;;;;;;;15.71;64.74;100621.31;5001131;28;20025;-86
2021/10/26 04:25:38;;;;;;;7.55;1.40;;;;;;;15.59;64.98;100615.28;4982693;28;20037;-86
2021/10/26 04:28:04;;;;;;;4.05;1.30;;;;;;;15.65;64.97;100621.84;4999726;28;20026;-86
2021/10/26 04:30:33;;;;;;;4.15;1.10;;;;;;;15.64;64.84;100615.72;5001145;28;20066;-86
2021/10/26 04:32:59;;;;;;;5.68;1.60;;;;;;;15.64;64.92;100614.91;4999769;28;20032;-86
2021/10/26 04:35:25;;;;;;;4.68;1.50;;;;;;;15.67;64.81;100622.56;5003785;28;20076;-85
2021/10/26 04:37:52;;;;;;;5.03;1.20;;;;;;;15.84;64.19;100610.56;5000497;28;20042;-86
2021/10/26 04:40:17;;;;;;;9.15;2.55;;;;;;;15.74;64.52;100621.09;4981381;28;20076;-85
2021/10/26 04:42:43;;;;;;;5.82;1.90;;;;;;;15.81;64.46;100621.41;5000630;28;20484;-86
2021/10/26 04:45:09;;;;;;;3.75;1.08;;;;;;;15.83;64.26;100620.28;4985017;28;20354;-86
2021/10/26 04:47:34;;;;;;;4.05;1.48;;;;;;;15.89;64.51;100618.94;5001210;28;20084;-86
2021/10/26 04:49:59;;;;;;;5.22;1.42;;;;;;;15.80;64.44;100625.88;4982579;28;20128;-86
2021/10/26 04:52:25;;;;;;;5.82;1.30;;;;;;;15.86;64.36;100635.94;5000919;28;20061;-86
2021/10/26 04:54:50;;;;;;;8.30;1.52;;;;;;;15.87;63.83;100642.06;5001386;28;20033;-85
2021/10/26 04:57:16;;;;;;;3.92;1.20;;;;;;;15.80;64.31;100641.75;4995989;28;20113;-85
2021/10/26 04:59:42;;;;;;;5.30;1.52;;;;;;;15.82;64.47;100647.75;4983518;28;20396;-85
2021/10/26 05:02:07;;;;;;;6.38;1.65;;;;;;;15.89;64.13;100649.88;5001852;28;20111;-86
2021/10/26 05:04:33;;;;;;;4.25;1.30;;;;;;;15.80;64.65;100649.69;5001004;28;20026;-85
2021/10/26 05:06:58;;;;;;;2.85;1.50;;;;;;;15.78;64.55;100654.28;5000258;28;20091;-86
2021/10/26 05:09:24;;;;;;;7.78;2.58;;;;;;;15.83;64.30;100657.34;5001887;28;20088;-86
2021/10/26 05:11:49;;;;;;;4.80;1.55;;;;;;;15.79;64.64;100661.25;5002983;28;20468;-86
2021/10/26 05:14:15;;;;;;;3.47;1.35;;;;;;;15.82;64.75;100661.00;5001096;28;20032;-86
2021/10/26 05:16:43;;;;;;;3.85;1.40;;;;;;;15.88;64.63;100656.97;4999744;28;20076;-86
2021/10/26 05:19:08;;;;;;;10.60;1.48;;;;;;;15.82;64.55;100660.16;5000614;28;20033;-86
2021/10/26 05:21:34;;;;;;;7.60;1.50;;;;;;;15.85;64.77;100660.72;5001754;28;20022;-86
2021/10/26 05:23:59;;;;;;;5.45;1.33;;;;;;;15.95;64.31;100660.75;5001000;28;20022;-86
2021/10/26 05:26:25;;;;;;;2.75;0.85;;;;;;;15.96;64.25;100657.16;4982032;28;20439;-86
2021/10/26 05:28:51;;;;;;;4.40;1.00;;;;;;;15.99;64.04;100656.03;5001093;28;20042;-86
2021/10/26 05:31:18;;;;;;;4.97;1.00;;;;;;;16.00;64.06;100663.03;5001236;28;20026;-85
2021/10/26 05:33:44;;;;;;;5.72;1.50;;;;;;;16.02;64.18;100663.72;5003211;28;20578;-86
2021/10/26 05:36:10;;;;;;;8.70;1.55;;;;;;;15.91;64.09;100658.53;5000982;28;20025;-85
2021/10/26 05:38:35;;;;;;;6.10;1.52;;;;;;;16.01;63.91;100654.91;5001581;28;20125;-86
2021/10/26 05:41:02;;;;;;;7.60;1.38;;;;;;;15.92;64.43;100649.63;5001211;28;20101;-86
2021/10/26 05:43:27;;;;;;;7.43;1.05;;;;;;;16.11;63.58;100644.38;5001545;28;20018;-85
2021/10/26 05:45:53;;;;;;;3.63;1.00;;;;;;;15.97;63.59;100642.09;5001452;28;20041;-86
2021/10/26 05:48:20;;;;;;;5.55;1.00;;;;;;;15.97;63.94;100652.69;4998379;28;20167;-86
2021/10/26 05:50:46;;;;;;;6.68;1.05;;;;;;;16.14;63.66;100654.72;5000692;28;20044;-86
2021/10/26 05:53:11;;;;;;;4.38;0.98;;;;;;;16.06;63.52;100660.66;5001318;28;20049;-86
2021/10/26 05:55:42;;;;;;;5.65;0.90;;;;;;;16.10;63.86;100655.94;4999659;28;20080;-85
2021/10/26 05:58:10;;;;;;;7.80;1.23;;;;;;;16.04;64.10;100656.50;5000266;28;20104;-85
2021/10/26 06:00:36;;;;;;;6.22;0.88;;;;;;;16.11;63.63;100654.97;4979135;28;20109;-85
2021/10/26 06:03:01;;;;;;;4.00;0.90;;;;;;;16.25;63.36;100667.88;5001401;28;20017;-86
2021/10/26 06:05:26;;;;;;;8.52;1.50;;;;;;;16.17;63.34;100665.06;5002306;28;20034;-86
2021/10/26 06:07:52;;;;;;;8.30;1.40;;;;;;;16.22;63.81;100656.69;5000440;28;20110;-86
2021/10/26 06:10:17;;;;;;;8.02;1.50;;;;;;;16.22;63.69;100662.00;5000170;28;20065;-86
2021/10/26 06:12:50;;;;;;;4.72;1.25;;;;;;;16.37;63.64;100675.69;4998879;28;20045;-86
2021/10/26 06:15:15;;;;;;;7.72;1.38;;;;;;;16.11;64.27;100664.72;5001105;28;20760;-86
2021/10/26 06:17:41;;;;;;;3.08;1.02;;;;;;;16.22;63.94;100669.94;5005564;28;20179;-86
2021/10/26 06:20:06;;;;;;;8.43;1.92;;;;;;;16.24;64.12;100676.78;5004076;28;20053;-86
2021/10/26 06:22:32;;;;;;;10.40;1.30;;;;;;;16.48;63.11;100667.63;5005365;28;20033;-86
2021/10/26 06:24:57;;;;;;;6.55;1.10;;;;;;;16.50;62.86;100662.19;5002770;28;20029;-86
2021/10/26 06:27:23;;;;;;;6.85;1.42;;;;;;;16.47;62.67;100655.38;5001943;28;20423;-85
2021/10/26 06:29:49;;;;;;;5.75;0.95;;;;;;;16.14;63.10;100659.19;5002172;28;20633;-86
2021/10/26 06:32:14;;;;;;;8.75;1.40;;;;;;;16.34;62.85;100665.38;5004118;28;20065;-86
2021/10/26 06:34:39;;;;;;;3.58;0.80;;;;;;;16.41;62.31;100658.53;5008458;28;20030;-86
2021/10/26 06:37:05;;;;;;;7.95;0.70;;;;;;;16.40;62.63;100665.66;5014300;28;20487;-86
2021/10/26 06:39:31;;;;;;;6.40;0.70;;;;;;;16.41;62.82;100666.47;5004735;28;20022;-86
2021/10/26 06:41:57;;;;;;;6.00;1.00;;;;;;;16.38;62.40;100669.44;5003528;28;20739;-86
2021/10/26 06:44:22;;;;;;;9.05;1.33;;;;;;;16.53;62.67;100665.41;5003612;28;20037;-86
2021/10/26 06:46:48;;;;;;;6.78;1.30;;;;;;;16.47;62.69;100676.56;5005531;28;20025;-86
2021/10/26 06:49:13;;;;;;;4.07;0.93;;;;;;;16.45;62.92;100679.34;5001425;28;20120;-85
2021/10/26 06:51:39;;;;;;;3.75;0.70;;;;;;;16.46;62.98;100680.19;4985416;28;20038;-86
2021/10/26 06:54:04;;;;;;;9.00;1.50;;;;;;;16.58;62.77;100679.09;5001141;28;20408;-86
2021/10/26 06:56:30;;;;;;;11.50;1.20;;;;;;;16.51;62.60;100679.75;5002831;28;20489;-86
2021/10/26 06:58:55;;;;;;;11.32;1.40;;;;;;;16.58;62.65;100681.75;4986559;28;20068;-86
2021/10/26 07:01:21;;;;;;;9.77;1.00;;;;;;;16.58;62.73;100678.25;5001090;28;20034;-86
2021/10/26 07:03:46;;;;;;;7.20;1.05;;;;;;;16.63;62.54;100673.41;5002547;28;20017;-86
2021/10/26 07:06:11;;;;;;;6.63;1.55;;;;;;;16.59;62.33;100669.34;5002751;28;20430;-86
2021/10/26 07:08:39;;;;;;;4.45;0.63;;;;;;;16.79;62.46;100683.47;4999504;28;20026;-86
2021/10/26 07:11:05;;;;;;;10.05;1.10;;;;;;;16.62;62.40;100669.06;5000961;28;20044;-86
2021/10/26 07:13:34;;;;;;;6.43;0.85;;;;;;;16.77;62.17;100672.16;4985677;28;20388;-86
2021/10/26 07:15:59;;;;;;;5.72;1.38;;;;;;;16.77;62.24;100673.00;5003023;28;20029;-86
2021/10/26 07:18:25;;;;;;;5.80;1.05;;;;;;;16.84;61.88;100681.25;5000306;28;20116;-86
2021/10/26 07:20:50;;;;;;;6.13;0.77;;;;;;;16.84;62.08;100683.91;5001522;28;20058;-86
2021/10/26 07:23:16;;;;;;;4.38;1.10;;;;;;;16.86;61.95;100681.94;5001965;28;20031;-86
2021/10/26 07:25:42;;;;;;;8.50;1.90;;;;;;;16.80;62.03;100679.81;5002010;28;20036;-86
2021/10/26 07:28:07;;;;;;;6.90;0.90;;;;;;;16.82;62.18;100680.56;4998393;28;20026;-85
2021/10/26 07:30:34;;;;;;;5.93;1.00;;;;;;;16.93;61.78;100683.09;5003581;28;20030;-85
2021/10/26 07:33:02;;;;;;;4.43;1.40;;;;;;;16.94;62.25;100692.72;5001293;28;20018;-85
2021/10/26 07:35:35;;;;;;;7.25;1.00;;;;;;;16.97;61.95;100696.91;4985938;28;20420;-85
2021/10/26 07:38:00;;;;;;;4.95;1.15;;;;;;;16.93;62.15;100685.72;4984586;28;20113;-85
2021/10/26 07:40:26;;;;;;;6.97;0.95;;;;;;;17.05;62.29;100687.28;4982129;28;20109;-85
2021/10/26 07:42:51;;;;;;;4.63;0.90;;;;;;;17.13;62.35;100689.22;5000247;28;20088;-83
2021/10/26 07:45:17;;;;;;;8.60;1.25;;;;;;;17.19;61.80;100691.31;5003742;28;20038;-84
2021/10/26 07:47:42;;;;;;;5.53;1.20;;;;;;;17.17;62.29;100692.44;4998620;28;20053;-84
2021/10/26 07:50:08;;;;;;;6.25;0.98;;;;;;;17.17;62.52;100695.94;4999520;28;20032;-84
2021/10/26 07:52:34;;;;;;;5.63;1.08;;;;;;;17.28;62.37;100697.63;5002426;28;20156;-84
2021/10/26 07:55:00;;;;;;;7.57;1.00;;;;;;;17.27;62.69;100676.53;5002757;28;20179;-84
2021/10/26 07:57:27;;;;;;;8.35;0.95;;;;;;;17.27;62.80;100690.63;5002855;28;20032;-83
2021/10/26 07:59:53;;;;;;;7.35;1.02;;;;;;;17.28;63.03;100702.06;5002504;28;20522;-84
2021/10/26 08:02:20;;;;;;;6.97;1.98;;;;;;;17.40;62.79;100685.03;4997486;28;20383;-84
2021/10/26 08:04:46;;;;;;;7.80;1.40;;;;;;;17.29;63.10;100693.97;4978744;28;20029;-84
2021/10/26 08:07:12;;;;;;;7.72;1.00;;;;;;;17.34;63.19;100698.88;4997607;28;20034;-84
2021/10/26 08:09:38;;;;;;;5.60;0.85;;;;;;;17.51;62.81;100694.63;4999267;28;20025;-84
2021/10/26 08:12:05;;;;;;;8.57;2.17;;;;;;;17.47;62.82;100695.91;4997773;28;20103;-84
2021/10/26 08:14:30;;;;;;;9.15;1.60;;;;;;;17.60;62.35;100696.44;5002190;28;20030;-84
2021/10/26 08:16:56;;;;;;;5.80;1.33;;;;;;;17.48;63.92;100700.25;4996521;28;20018;-84
2021/10/26 08:19:21;;;;;;;12.07;1.40;;;;;;;17.68;62.92;100696.56;5002124;28;20451;-84
2021/10/26 08:21:48;;;;;;;5.18;0.88;;;;;;;17.86;62.70;100703.84;5000453;28;20156;-83
2021/10/26 08:24:14;;;;;;;5.43;1.23;;;;;;;17.76;63.30;100707.31;5001055;28;20518;-83
2021/10/26 08:26:43;;;;;;;14.10;1.70;;;;;;;17.83;62.95;100707.56;5000146;28;20022;-84
2021/10/26 08:29:15;;;;;;;5.93;1.10;;;;;;;17.90;63.22;100713.19;5001632;28;20065;-83
2021/10/26 08:31:49;;;;;;;8.52;1.98;;;;;;;17.87;63.53;100702.84;5000380;28;20119;-84
2021/10/26 08:35:15;;;;;;;9.60;1.67;;;;;;;18.01;63.11;100705.03;5002354;28;20032;-83
2021/10/26 08:37:01;;;;;;;10.48;1.05;;;;;;;17.86;64.37;100709.16;4988991;28;20053;-83
2021/10/26 08:39:26;;;;;;;7.35;1.63;;;;;;;18.01;64.28;100711.19;5002699;28;20061;-84
2021/10/26 08:41:56;;;;;;;13.63;1.70;;;;;;;18.20;63.51;100710.25;5000202;28;20584;-84
2021/10/26 08:44:22;;;;;;;11.27;1.83;;;;;;;18.30;63.10;100701.41;5002102;28;20481;-84
2021/10/26 08:46:48;;;;;;;11.90;1.40;;;;;;;18.34;62.75;100694.81;5003293;28;20490;-84
2021/10/26 08:49:14;;;;;;;12.57;1.73;;;;;;;18.36;63.36;100692.84;5002491;28;20121;-84
2021/10/26 08:51:44;;;;;;;7.43;1.70;;;;;;;18.39;63.42;100701.38;4994014;28;20034;-83
2021/10/26 08:54:11;;;;;;;9.25;1.38;;;;;;;18.24;63.95;100706.31;4993985;28;20034;-83
2021/10/26 08:56:37;;;;;;;9.55;2.05;;;;;;;18.34;64.46;100705.44;5001274;28;20108;-84
2021/10/26 08:59:04;;;;;;;12.80;1.50;;;;;;;18.34;64.08;100700.97;4998807;28;20469;-84
2021/10/26 09:01:30;;;;;;;12.10;2.00;;;;;;;18.58;63.31;100696.91;4998512;28;20284;-84
2021/10/26 09:04:11;;;;;;;13.88;1.80;;;;;;;18.50;64.02;100702.97;5000224;28;20274;-83
2021/10/26 09:06:49;;;;;;;6.55;1.48;;;;;;;18.67;63.53;100703.19;5000287;28;20030;-83
2021/10/26 09:09:19;;;;;;;10.30;2.13;;;;;;;18.58;63.87;100692.47;5003088;28;20030;-83
2021/10/26 09:17:26;;;;;;;10.38;1.50;;;;;;;18.87;63.02;100693.28;4999495;28;20412;-84
2021/10/26 09:19:57;;;;;;;7.68;1.30;;;;;;;18.87;63.54;100699.44;4999721;28;20623;-84
2021/10/26 09:22:25;;;;;;;8.73;1.35;;;;;;;19.10;62.78;100691.84;4997845;28;20100;-84
2021/10/26 09:25:09;;;;;;;10.85;1.42;;;;;;;19.21;62.27;100698.72;4995080;28;20044;-84
2021/10/26 09:27:34;;;;;;;9.38;1.67;;;;;;;19.24;62.79;100685.13;4998941;28;20120;-84
2021/10/26 09:30:11;;;;;;;8.52;1.65;;;;;;;19.52;62.11;100685.00;4999370;28;20153;-84
2021/10/26 09:32:47;;;;;;;9.98;1.27;;;;;;;19.51;62.09;100688.66;4999692;28;20026;-86
2021/10/26 09:35:17;;;;;;;10.73;1.70;;;;;;;19.65;61.80;100690.78;5001689;28;20464;-86
2021/10/26 09:37:49;;;;;;;9.63;1.90;;;;;;;19.74;61.85;100689.84;5001890;28;20104;-86
2021/10/26 09:40:15;;;;;;;9.98;1.40;;;;;;;19.60;62.06;100687.72;5004027;28;20157;-86
2021/10/26 09:42:44;;;;;;;9.75;1.50;;;;;;;19.30;63.03;100687.19;4997832;28;20112;-85
2021/10/26 09:45:12;;;;;;;12.88;2.95;;;;;;;19.34;62.75;100687.72;4986655;28;20022;-85
2021/10/26 09:47:40;;;;;;;17.75;2.58;;;;;;;19.42;62.18;100685.09;4982608;28;20034;-88
2021/10/26 09:50:09;;;;;;;7.63;1.42;;;;;;;19.59;62.18;100689.56;5000180;28;20037;-88
2021/10/26 09:52:37;;;;;;;12.15;1.85;;;;;;;19.81;61.67;100696.22;5001222;28;20049;-87
2021/10/26 09:55:22;;;;;;;12.07;2.55;;;;;;;19.77;61.70;100694.03;5005742;28;20069;-87
2021/10/26 09:57:53;;;;;;;11.88;1.60;;;;;;;19.84;61.56;100702.22;5004810;28;20108;-87
2021/10/26 10:00:29;;;;;;;8.05;1.60;;;;;;;19.83;61.59;100704.06;5002934;28;20026;-88
2021/10/26 10:03:10;;;;;;;8.98;1.80;;;;;;;19.84;61.84;100705.72;4996247;28;20026;-86
2021/10/26 10:05:58;;;;;;;15.70;2.88;;;;;;;19.66;62.77;100695.09;5000235;28;20026;-86
2021/10/26 10:08:28;;;;;;;12.93;1.77;;;;;;;19.84;62.33;100710.22;5008202;28;20104;-87
2021/10/26 10:11:06;;;;;;;14.13;2.25;;;;;;;19.86;62.02;100702.91;5009049;28;20107;-86
2021/10/26 10:13:32;;;;;;;13.40;2.03;;;;;;;19.73;62.09;100714.81;5009962;28;20037;-86
2021/10/26 10:15:58;;;;;;;16.02;3.72;;;;;;;19.96;62.06;100724.94;5012268;28;20026;-86
2021/10/26 10:18:24;;;;;;;12.38;1.75;;;;;;;19.74;63.37;100728.97;5014237;28;20038;-86
2021/10/26 10:20:54;;;;;;;19.60;2.95;;;;;;;19.77;63.72;100737.50;5013868;28;20044;-86
2021/10/26 10:23:22;;;;;;;9.55;1.65;;;;;;;19.61;64.80;100729.38;5005575;28;20084;-86
2021/10/26 10:25:47;;;;;;;12.43;1.90;;;;;;;19.59;64.64;100715.38;5008141;28;20040;-87
2021/10/26 10:28:18;;;;;;;12.98;1.55;;;;;;;19.72;64.69;100721.13;5013370;28;20026;-87
2021/10/26 10:30:44;;;;;;;10.95;2.13;;;;;;;19.72;64.77;100718.47;5013814;28;20040;-88
2021/10/26 10:33:10;;;;;;;10.63;1.70;;;;;;;19.74;64.51;100719.16;5005716;28;20044;-87
2021/10/26 10:35:37;;;;;;;6.18;1.27;;;;;;;19.75;64.65;100715.50;5009342;28;20032;-86
2021/10/26 10:38:04;;;;;;;12.05;2.83;;;;;;;19.74;64.87;100720.97;5006240;28;20080;-86
2021/10/26 10:40:32;;;;;;;13.68;2.95;;;;;;;19.86;64.25;100729.56;4997813;28;20073;-88
2021/10/26 10:42:58;;;;;;;9.73;1.98;;;;;;;19.84;64.31;100734.19;4999082;28;20034;-86
2021/10/26 10:45:31;;;;;;;9.20;1.30;;;;;;;19.89;64.63;100727.41;5005107;28;20112;-86
2021/10/26 10:47:56;;;;;;;15.82;1.73;;;;;;;19.90;64.50;100725.56;5012125;28;20095;-86
2021/10/26 10:50:31;;;;;;;9.15;1.58;;;;;;;20.04;64.62;100724.97;5007394;28;20038;-88
2021/10/26 10:53:04;;;;;;;8.07;1.73;;;;;;;19.81;65.29;100728.19;5006624;28;20045;-86
2021/10/26 10:55:31;;;;;;;6.15;1.35;;;;;;;19.95;65.16;100733.94;5011407;28;20087;-87
2021/10/26 10:57:56;;;;;;;11.48;2.05;;;;;;;19.76;65.94;100727.00;5004521;28;20022;-86
2021/10/26 11:00:34;;;;;;;15.15;2.55;;;;;;;19.87;66.23;100726.75;4990662;28;20034;-87
2021/10/26 11:03:00;;;;;;;12.57;1.70;;;;;;;19.96;65.90;100728.47;4977778;28;20050;-87
2021/10/26 11:05:38;;;;;;;12.50;2.55;;;;;;;19.96;66.22;100730.28;4998359;28;20366;-86
2021/10/26 11:08:11;;;;;;;14.68;3.45;;;;;;;19.97;66.11;100721.28;4995022;28;20038;-87
2021/10/26 11:10:49;;;;;;;10.40;2.08;;;;;;;20.04;66.25;100718.81;5002291;28;20026;-87
2021/10/26 11:13:23;;;;;;;17.23;2.38;;;;;;;19.98;66.35;100712.28;5002579;28;20054;-87
2021/10/26 11:15:51;;;;;;;13.30;2.05;;;;;;;20.08;66.40;100713.00;5001224;28;20029;-88
2021/10/26 11:18:37;;;;;;;12.60;2.65;;;;;;;20.05;66.36;100716.00;5009910;28;20026;-87
2021/10/26 11:21:08;;;;;;;11.77;2.63;;;;;;;20.06;66.05;100714.16;5001379;28;20423;-88
2021/10/26 11:23:36;;;;;;;12.20;2.25;;;;;;;20.41;65.16;100713.16;4994263;28;20492;-88
2021/10/26 11:26:14;;;;;;;11.80;2.47;;;;;;;20.24;65.52;100714.09;5003052;28;20037;-88
2021/10/26 11:28:51;;;;;;;10.30;1.65;;;;;;;20.35;65.26;100724.47;5010773;28;20097;-90
2021/10/26 11:31:23;;;;;;;11.13;2.58;;;;;;;20.07;65.90;100734.53;5004886;28;20501;-90